Time;durP1;ratioP1;P1;durP2;ratioP2;P2;SDS_P1;SDS_P2;PMS_P1;PMS_P2;Temp;Humidity;BMP_temperature;BMP_pressure;BME280_temperature;BME280_humidity;BME280_pressure;Samples;Min_cycle;Max_cycle;Signal;HPM_P1;HPM_P2
2023/10/13 00:01:48;;;;;;;9.95;3.72;;;;;;;16.05;82.04;97334.81;5034745;28;20048;-65
2023/10/13 00:04:15;;;;;;;9.65;4.10;;;;;;;15.98;83.21;97337.06;5037667;28;20055;-65
2023/10/13 00:06:42;;;;;;;7.25;3.20;;;;;;;15.84;83.94;97337.69;5037838;28;20052;-65
2023/10/13 00:09:14;;;;;;;6.50;3.15;;;;;;;15.76;84.07;97332.03;5035024;28;20578;-65
2023/10/13 00:11:44;;;;;;;7.07;3.42;;;;;;;15.65;84.71;97331.31;5034818;28;20064;-65
2023/10/13 00:14:15;;;;;;;8.35;3.38;;;;;;;15.62;84.89;97327.25;5041729;28;20574;-65
2023/10/13 00:19:46;;;;;;;8.13;3.10;;;;;;;15.22;86.93;97327.28;5037849;28;20056;-65
2023/10/13 00:22:19;;;;;;;9.50;4.28;;;;;;;15.06;87.83;97330.13;5040872;28;20604;-64
2023/10/13 00:24:46;;;;;;;10.13;4.43;;;;;;;14.95;87.82;97323.09;5044511;28;20116;-65
2023/10/13 00:27:30;;;;;;;9.57;3.70;;;;;;;14.85;88.51;97334.84;5038159;28;20492;-65
2023/10/13 00:30:21;;;;;;;9.85;3.88;;;;;;;14.76;88.65;97325.63;5037013;28;20475;-65
2023/10/13 00:32:56;;;;;;;9.30;3.65;;;;;;;14.63;89.18;97321.59;5049454;28;20055;-65
2023/10/13 00:35:36;;;;;;;7.53;3.63;;;;;;;14.56;89.08;97328.16;5037028;28;20143;-65
2023/10/13 00:38:06;;;;;;;6.72;3.60;;;;;;;14.33;90.80;97335.06;5042140;28;20495;-65
2023/10/13 00:43:31;;;;;;;9.60;4.10;;;;;;;14.43;89.51;97326.03;5036856;28;20720;-64
2023/10/13 00:45:56;;;;;;;6.93;3.60;;;;;;;14.47;89.83;97324.38;5038086;28;20040;-65
2023/10/13 00:48:34;;;;;;;8.18;3.88;;;;;;;14.40;89.89;97321.97;5043581;28;20115;-64
2023/10/13 00:51:03;;;;;;;11.18;3.55;;;;;;;14.41;89.36;97323.59;5045020;28;20055;-64
2023/10/13 00:53:33;;;;;;;10.10;4.05;;;;;;;14.50;88.60;97323.00;5037162;28;20041;-65
2023/10/13 00:56:07;;;;;;;6.82;3.13;;;;;;;14.79;86.32;97331.38;5048616;28;20047;-64
2023/10/13 00:58:35;;;;;;;6.22;2.83;;;;;;;14.79;86.20;97327.81;5050228;28;20408;-65
2023/10/13 01:01:18;;;;;;;9.80;4.35;;;;;;;14.70;87.05;97306.56;5042865;28;20025;-64
2023/10/13 01:03:48;;;;;;;7.95;3.88;;;;;;;14.83;86.58;97315.25;5036555;28;20045;-65
2023/10/13 01:06:17;;;;;;;7.40;3.67;;;;;;;14.79;86.48;97319.66;5037615;28;20029;-65
2023/10/13 01:08:51;;;;;;;6.80;3.50;;;;;;;14.69;87.65;97315.03;5045642;28;20037;-65
2023/10/13 01:11:18;;;;;;;9.98;3.58;;;;;;;14.54;87.83;97324.91;5029731;28;20038;-65
2023/10/13 01:13:50;;;;;;;8.57;3.40;;;;;;;14.35;89.92;97329.34;5035768;28;20082;-65
2023/10/13 01:16:23;;;;;;;7.15;3.22;;;;;;;14.18;90.36;97323.13;5032806;28;20041;-65
2023/10/13 01:18:50;;;;;;;6.18;3.70;;;;;;;14.24;89.65;97323.09;5043503;28;20052;-65
2023/10/13 01:21:20;;;;;;;10.15;3.28;;;;;;;14.27;89.24;97311.66;5037858;28;20666;-64
2023/10/13 01:23:48;;;;;;;7.43;3.50;;;;;;;14.28;89.01;97313.28;5029019;28;20665;-65
2023/10/13 01:26:21;;;;;;;7.28;3.15;;;;;;;14.09;89.72;97308.47;5031539;28;20522;-64
2023/10/13 01:28:48;;;;;;;9.65;4.07;;;;;;;14.10;88.88;97309.25;5039668;28;20642;-65
2023/10/13 01:31:24;;;;;;;10.23;3.33;;;;;;;14.26;86.91;97304.59;5032862;28;20108;-64
2023/10/13 01:33:54;;;;;;;8.00;3.28;;;;;;;14.20;87.49;97301.06;5024878;28;20491;-65
2023/10/13 01:36:21;;;;;;;7.38;3.20;;;;;;;14.08;89.03;97303.28;5030835;28;20046;-65
2023/10/13 01:38:49;;;;;;;8.23;3.63;;;;;;;14.11;87.32;97292.66;5044804;28;20045;-64
2023/10/13 01:41:17;;;;;;;8.27;3.28;;;;;;;14.16;87.27;97300.00;5036157;28;20049;-65
2023/10/13 01:43:43;;;;;;;9.48;3.30;;;;;;;14.13;87.21;97295.91;5048051;28;20065;-65
2023/10/13 01:46:13;;;;;;;10.82;3.70;;;;;;;13.99;88.28;97297.56;5046030;28;20155;-65
2023/10/13 01:48:40;;;;;;;7.10;3.75;;;;;;;13.93;88.48;97285.09;5038516;28;20095;-65
2023/10/13 01:51:09;;;;;;;13.57;4.18;;;;;;;13.81;89.46;97286.19;5034306;28;20564;-65
2023/10/13 01:53:37;;;;;;;7.55;3.28;;;;;;;13.84;89.29;97288.38;5032463;28;20048;-65
2023/10/13 01:56:09;;;;;;;6.72;3.78;;;;;;;13.72;90.23;97283.22;5039894;28;20116;-64
2023/10/13 01:58:45;;;;;;;5.93;3.42;;;;;;;13.67;90.21;97288.66;5037474;28;20128;-64
2023/10/13 02:01:13;;;;;;;6.95;3.25;;;;;;;13.61;90.55;97287.88;5040512;28;20492;-65
2023/10/13 02:03:46;;;;;;;8.38;3.63;;;;;;;13.54;90.57;97287.31;5032469;28;20045;-65
2023/10/13 02:06:17;;;;;;;12.15;3.78;;;;;;;13.42;91.31;97284.03;5033969;28;20069;-64
2023/10/13 02:08:44;;;;;;;9.02;3.35;;;;;;;13.47;90.78;97278.59;5042082;28;20558;-64
2023/10/13 02:11:11;;;;;;;6.85;3.70;;;;;;;13.34;91.49;97269.88;5031653;28;20128;-64
2023/10/13 02:13:48;;;;;;;10.40;3.90;;;;;;;13.22;92.76;97269.34;5043789;28;20527;-65
2023/10/13 02:16:18;;;;;;;9.90;3.58;;;;;;;13.14;92.99;97273.44;5037070;28;20555;-64
2023/10/13 02:18:51;;;;;;;7.60;3.40;;;;;;;13.11;93.07;97269.34;5040517;28;20041;-64
2023/10/13 02:21:17;;;;;;;7.93;3.47;;;;;;;13.10;93.01;97264.19;5034357;28;20037;-64
2023/10/13 02:23:45;;;;;;;9.35;4.30;;;;;;;13.09;92.84;97260.63;5043516;28;20041;-65
2023/10/13 02:26:14;;;;;;;8.43;3.90;;;;;;;12.99;93.58;97260.63;5037654;28;20049;-64
2023/10/13 02:28:42;;;;;;;8.40;4.07;;;;;;;12.99;93.17;97256.03;5034107;28;20041;-64
2023/10/13 02:31:08;;;;;;;8.13;3.78;;;;;;;12.90;93.93;97254.13;5035868;28;20056;-64
2023/10/13 02:33:44;;;;;;;6.90;3.53;;;;;;;12.78;94.75;97255.19;5040932;28;20545;-64
2023/10/13 02:36:20;;;;;;;7.20;3.55;;;;;;;12.72;94.49;97261.69;5039779;28;20095;-64
2023/10/13 02:38:50;;;;;;;9.65;3.65;;;;;;;12.64;95.26;97248.63;5039356;28;20124;-64
2023/10/13 02:41:25;;;;;;;9.07;3.55;;;;;;;12.58;95.07;97248.63;5039108;28;20037;-64
2023/10/13 02:43:53;;;;;;;10.73;3.70;;;;;;;12.60;95.05;97249.16;5032841;28;20045;-64
2023/10/13 02:46:25;;;;;;;8.10;3.53;;;;;;;12.69;93.95;97241.31;5041756;28;20068;-64
2023/10/13 02:48:57;;;;;;;7.55;3.50;;;;;;;12.80;92.58;97236.72;5041368;28;20125;-64
2023/10/13 02:51:35;;;;;;;7.68;3.20;;;;;;;12.94;91.45;97236.97;5033689;28;20092;-64
2023/10/13 02:54:09;;;;;;;8.43;3.35;;;;;;;12.96;91.48;97236.72;5037339;28;20397;-64
2023/10/13 02:56:36;;;;;;;6.80;3.25;;;;;;;12.83;92.15;97230.72;5038644;28;20420;-64
2023/10/13 02:59:07;;;;;;;9.75;3.83;;;;;;;12.83;92.18;97232.66;5041065;28;20051;-64
2023/10/13 03:01:34;;;;;;;7.53;3.15;;;;;;;12.87;91.29;97237.25;5032057;28;20037;-64
2023/10/13 03:04:03;;;;;;;10.32;3.83;;;;;;;12.77;92.19;97234.53;5032469;28;20044;-64
2023/10/13 03:06:32;;;;;;;7.10;3.28;;;;;;;12.82;90.98;97231.00;5037055;28;20051;-64
2023/10/13 03:09:14;;;;;;;9.60;3.20;;;;;;;13.17;88.21;97228.56;5033467;28;20094;-64
2023/10/13 03:11:42;;;;;;;8.63;3.20;;;;;;;13.61;84.47;97224.47;5028996;28;20040;-64
2023/10/13 03:14:23;;;;;;;7.05;2.95;;;;;;;13.81;82.76;97215.44;5035861;28;20047;-64
2023/10/13 03:16:52;;;;;;;20.75;3.80;;;;;;;14.03;81.03;97220.53;5036658;28;20193;-64
2023/10/13 03:19:19;;;;;;;7.22;3.42;;;;;;;14.10;80.67;97220.25;5039026;28;20068;-64
2023/10/13 03:21:57;;;;;;;6.07;2.67;;;;;;;14.01;81.29;97217.25;5041900;28;20037;-64
2023/10/13 03:24:33;;;;;;;8.98;3.15;;;;;;;13.95;81.61;97218.38;5040884;28;20045;-64
2023/10/13 03:27:08;;;;;;;6.68;2.92;;;;;;;13.81;82.77;97210.00;5043516;28;20504;-65
2023/10/13 03:29:42;;;;;;;8.57;3.13;;;;;;;13.67;83.69;97217.91;5041791;28;20029;-64
2023/10/13 03:32:17;;;;;;;7.53;3.53;;;;;;;13.58;84.35;97209.53;5034129;28;20037;-64
2023/10/13 03:37:39;;;;;;;6.38;3.38;;;;;;;13.45;85.53;97212.78;5030644;28;20037;-64
2023/10/13 03:40:33;;;;;;;8.05;3.63;;;;;;;13.26;86.92;97208.72;5032133;28;20045;-64
2023/10/13 03:43:07;;;;;;;7.90;2.90;;;;;;;13.12;87.88;97208.44;5035568;28;20047;-65
2023/10/13 03:45:39;;;;;;;5.90;2.92;;;;;;;13.18;87.11;97212.00;5032086;28;20087;-64
2023/10/13 03:53:38;;;;;;;9.45;3.15;;;;;;;12.90;89.52;97207.91;5035804;28;20055;-65
2023/10/13 03:56:14;;;;;;;10.60;4.90;;;;;;;12.70;90.49;97204.91;5039774;28;20055;-64
2023/10/13 03:58:53;;;;;;;9.35;3.55;;;;;;;12.51;91.95;97206.50;5037810;28;20044;-65
2023/10/13 04:01:31;;;;;;;8.50;3.65;;;;;;;12.30;93.23;97207.28;5034839;28;20057;-65
2023/10/13 04:04:10;;;;;;;8.82;4.03;;;;;;;12.31;92.86;97206.19;5040230;28;20037;-64
2023/10/13 04:17:27;;;;;;;8.93;3.60;;;;;;;12.20;94.39;97199.13;5038876;28;20041;-65
2023/10/13 04:25:38;;;;;;;9.43;3.80;;;;;;;12.18;94.91;97195.84;5031011;28;20124;-64
2023/10/13 04:31:46;;;;;;;8.35;4.32;;;;;;;12.12;95.11;97197.72;5036976;28;20037;-64
2023/10/13 04:33:48;;;;;;;10.20;4.30;;;;;;;12.08;95.47;97191.19;5036216;28;20048;-65
2023/10/13 04:36:16;;;;;;;7.68;3.45;;;;;;;12.12;95.15;97195.00;5034387;28;20037;-65
2023/10/13 04:41:36;;;;;;;9.38;3.58;;;;;;;12.20;94.94;97183.63;5037681;28;20037;-64
2023/10/13 04:47:07;;;;;;;7.07;3.20;;;;;;;12.23;94.62;97182.28;5036490;28;20508;-64
2023/10/13 04:54:45;;;;;;;9.48;3.63;;;;;;;12.33;93.58;97166.03;5038080;28;20033;-64
2023/10/13 05:06:10;;;;;;;8.45;3.13;;;;;;;13.96;80.36;97164.78;5040561;28;20075;-64
2023/10/13 06:28:43;;;;;;;8.88;3.55;;;;;;;15.61;68.53;97161.88;5045990;28;20574;-64
2023/10/13 06:31:21;;;;;;;12.93;3.80;;;;;;;15.68;67.86;97170.53;5042448;28;20041;-64
2023/10/13 06:33:49;;;;;;;8.93;2.88;;;;;;;15.74;67.71;97169.38;5042731;28;20045;-64
2023/10/13 06:36:17;;;;;;;8.27;3.50;;;;;;;15.73;67.74;97158.72;5039015;28;20243;-65
2023/10/13 06:38:44;;;;;;;8.05;3.20;;;;;;;15.81;67.23;97158.09;5037806;28;20068;-64
2023/10/13 06:41:19;;;;;;;6.30;3.40;;;;;;;15.87;66.95;97158.84;5035631;28;20463;-63
2023/10/13 06:43:58;;;;;;;9.10;3.63;;;;;;;15.89;66.60;97153.09;5048536;28;20049;-65
2023/10/13 06:46:28;;;;;;;6.28;3.15;;;;;;;15.91;66.57;97154.44;5046621;28;20451;-65
2023/10/13 06:48:55;;;;;;;9.55;3.58;;;;;;;15.98;66.28;97159.56;5046529;28;20102;-65
2023/10/13 06:51:26;;;;;;;7.80;3.13;;;;;;;15.98;66.26;97156.84;5041177;28;20064;-64
2023/10/13 06:53:56;;;;;;;7.78;2.85;;;;;;;16.03;66.28;97159.50;5038167;28;20439;-65
2023/10/13 06:56:32;;;;;;;7.70;3.13;;;;;;;16.02;66.62;97162.50;5036026;28;20069;-65
2023/10/13 06:59:04;;;;;;;7.93;2.92;;;;;;;16.04;66.04;97163.88;5039694;28;20114;-65
2023/10/13 07:01:38;;;;;;;5.82;2.90;;;;;;;16.06;65.79;97158.09;5036724;28;20612;-65
2023/10/13 07:04:15;;;;;;;9.85;2.75;;;;;;;16.04;66.59;97161.13;5040540;28;20056;-65
2023/10/13 07:06:49;;;;;;;8.13;3.25;;;;;;;16.01;66.34;97158.16;5035495;28;20119;-65
2023/10/13 07:12:22;;;;;;;10.75;3.20;;;;;;;16.11;66.78;97152.59;5042812;28;20775;-65
2023/10/13 07:14:52;;;;;;;8.43;2.60;;;;;;;16.28;65.79;97162.19;5030838;28;20046;-65
2023/10/13 07:17:25;;;;;;;9.85;3.00;;;;;;;16.42;64.82;97163.06;5041621;28;20404;-65
2023/10/13 07:19:54;;;;;;;8.30;2.40;;;;;;;16.56;64.32;97165.88;5036014;28;20701;-65
2023/10/13 07:22:22;;;;;;;14.40;3.80;;;;;;;16.69;63.95;97164.31;5029350;28;20061;-65
2023/10/13 07:24:50;;;;;;;6.32;2.97;;;;;;;16.74;64.10;97169.69;5032611;28;20044;-65
2023/10/13 07:27:24;;;;;;;9.90;2.72;;;;;;;16.79;64.33;97160.59;5043520;28;20046;-65
2023/10/13 07:29:56;;;;;;;6.88;3.00;;;;;;;16.90;63.37;97166.72;5040662;28;20092;-65
2023/10/13 07:32:26;;;;;;;8.20;2.70;;;;;;;17.00;63.63;97158.34;5035749;28;20508;-64
2023/10/13 07:34:57;;;;;;;8.93;3.13;;;;;;;17.10;62.18;97159.31;5038446;28;20056;-64
2023/10/13 07:37:28;;;;;;;6.32;2.78;;;;;;;17.24;61.58;97162.06;5052616;28;20036;-65
2023/10/13 07:40:00;;;;;;;8.43;2.85;;;;;;;17.47;60.70;97156.75;5048078;28;20106;-64
2023/10/13 07:42:38;;;;;;;6.32;2.60;;;;;;;17.58;60.06;97149.94;5037779;28;20049;-65
2023/10/13 07:45:06;;;;;;;8.23;3.33;;;;;;;17.66;59.09;97149.25;5032515;28;20040;-65
2023/10/13 07:47:33;;;;;;;6.82;2.47;;;;;;;17.79;59.34;97146.81;5043456;28;20045;-63
2023/10/13 07:50:00;;;;;;;6.60;2.95;;;;;;;17.89;58.64;97148.53;5042657;28;20108;-63
2023/10/13 07:52:36;;;;;;;9.02;2.97;;;;;;;18.01;57.34;97143.34;5036227;28;20061;-63
2023/10/13 07:55:13;;;;;;;10.40;3.00;;;;;;;18.16;56.74;97141.41;5029946;28;20115;-63
2023/10/13 07:57:53;;;;;;;8.52;2.58;;;;;;;18.27;56.52;97151.03;5035262;28;20068;-63
2023/10/13 08:08:22;;;;;;;7.72;2.60;;;;;;;18.75;54.49;97129.66;5030760;28;20404;-64
2023/10/13 08:10:48;;;;;;;7.22;2.80;;;;;;;18.89;53.75;97124.09;5042779;28;20083;-63
2023/10/13 08:13:15;;;;;;;11.50;2.63;;;;;;;19.02;52.85;97127.09;5041172;28;20047;-63
2023/10/13 08:15:47;;;;;;;9.20;2.88;;;;;;;19.15;52.21;97130.91;5042663;28;20033;-64
2023/10/13 08:18:29;;;;;;;8.90;3.20;;;;;;;19.34;51.88;97125.19;5035032;28;20045;-63
2023/10/13 08:21:16;;;;;;;9.02;2.78;;;;;;;19.49;52.12;97119.28;5039576;28;20045;-63
2023/10/13 08:29:31;;;;;;;7.72;2.75;;;;;;;19.96;49.16;97117.97;5039214;28;20048;-63
2023/10/13 08:43:11;;;;;;;11.45;2.55;;;;;;;20.66;47.84;97113.66;5028465;28;20119;-64
2023/10/13 08:50:52;;;;;;;6.93;2.63;;;;;;;21.01;46.84;97107.34;5033971;28;19920;-63
2023/10/13 08:56:32;;;;;;;7.57;2.72;;;;;;;21.13;46.51;97109.41;5036339;28;20037;-65
2023/10/13 09:09:59;;;;;;;9.52;2.55;;;;;;;21.72;45.17;97105.13;5041548;28;20037;-65
2023/10/13 09:17:42;;;;;;;7.72;2.60;;;;;;;22.12;44.55;97098.44;5038223;28;20045;-65
2023/10/13 09:23:07;;;;;;;6.32;2.60;;;;;;;22.35;41.94;97093.41;5042497;28;20041;-64
2023/10/13 09:25:36;;;;;;;13.10;2.92;;;;;;;22.45;40.90;97089.41;5037793;28;20528;-64
2023/10/13 09:28:17;;;;;;;8.32;2.65;;;;;;;22.48;41.42;97096.19;5036254;28;20049;-64
2023/10/13 09:30:45;;;;;;;9.23;2.50;;;;;;;22.47;41.36;97081.63;5031007;28;20050;-65
2023/10/13 09:33:20;;;;;;;7.20;2.70;;;;;;;22.53;40.93;97084.16;5035702;28;20059;-64
2023/10/13 09:35:49;;;;;;;8.15;2.13;;;;;;;22.66;40.69;97080.31;5035931;28;20136;-64
2023/10/13 09:38:16;;;;;;;5.70;2.35;;;;;;;22.77;40.83;97082.69;5032878;28;20055;-65
2023/10/13 09:40:49;;;;;;;8.80;2.95;;;;;;;22.86;40.40;97077.88;5045204;28;20045;-64
2023/10/13 09:43:20;;;;;;;5.47;2.28;;;;;;;23.01;40.17;97068.13;5032725;28;20042;-64
2023/10/13 09:46:01;;;;;;;7.13;2.40;;;;;;;23.14;40.14;97074.47;5040138;28;20055;-64
2023/10/13 09:48:40;;;;;;;6.38;1.88;;;;;;;23.28;39.41;97073.38;5037038;28;20037;-64
2023/10/13 09:51:13;;;;;;;5.72;2.53;;;;;;;23.40;39.51;97078.91;5033777;28;20065;-64
2023/10/13 09:53:53;;;;;;;8.90;2.67;;;;;;;23.63;40.34;97075.72;5035209;28;20501;-65
2023/10/13 09:56:52;;;;;;;7.50;2.47;;;;;;;23.60;38.83;97076.38;5031809;28;20087;-64
2023/10/13 09:59:47;;;;;;;7.57;2.65;;;;;;;23.70;38.66;97067.63;5041869;28;20048;-65
2023/10/13 10:02:18;;;;;;;6.68;2.20;;;;;;;23.88;38.63;97070.16;5037899;28;20041;-64
2023/10/13 10:04:52;;;;;;;7.95;2.40;;;;;;;23.90;38.58;97062.31;5045133;28;20098;-65
2023/10/13 10:07:29;;;;;;;8.70;2.55;;;;;;;23.91;38.38;97058.38;5042945;28;20047;-65
2023/10/13 10:10:00;;;;;;;7.60;2.78;;;;;;;23.94;38.15;97062.41;5037078;28;20056;-64
2023/10/13 10:12:35;;;;;;;4.22;2.30;;;;;;;23.88;38.01;97064.63;5042068;28;20816;-64
2023/10/13 10:15:30;;;;;;;6.32;2.60;;;;;;;23.68;38.63;97064.41;5040305;28;20044;-64
2023/10/13 10:17:57;;;;;;;6.40;2.70;;;;;;;23.57;38.73;97061.31;5043705;28;20052;-65
2023/10/13 10:20:45;;;;;;;6.00;2.38;;;;;;;23.64;38.44;97058.78;5044200;28;20053;-65
2023/10/13 10:23:27;;;;;;;6.18;2.58;;;;;;;23.81;38.94;97056.91;5040506;28;20419;-64
2023/10/13 10:26:04;;;;;;;8.75;3.00;;;;;;;23.97;38.55;97051.47;5047297;28;20052;-65
2023/10/13 10:28:38;;;;;;;7.95;2.47;;;;;;;24.01;38.15;97057.09;5043210;28;20041;-65
2023/10/13 10:31:09;;;;;;;9.68;2.78;;;;;;;24.19;38.37;97052.16;5039808;28;20553;-64
2023/10/13 10:33:36;;;;;;;8.18;2.60;;;;;;;24.33;37.81;97053.72;5046992;28;20041;-64
2023/10/13 10:36:05;;;;;;;8.05;1.98;;;;;;;24.47;37.36;97036.72;5039429;28;20041;-64
2023/10/13 10:41:00;;;;;;;7.82;2.40;;;;;;;24.69;36.73;97040.88;5041383;28;20496;-55
2023/10/13 10:43:41;;;;;;;7.90;2.30;;;;;;;24.77;36.97;97031.59;5044154;28;20047;-54
2023/10/13 10:46:18;;;;;;;9.00;2.15;;;;;;;24.79;36.33;97032.06;5048977;28;20442;-55
2023/10/13 10:48:45;;;;;;;5.43;2.20;;;;;;;24.71;35.77;97027.50;5044000;28;20045;-55
2023/10/13 10:51:22;;;;;;;6.00;2.55;;;;;;;24.93;35.19;97026.13;5046097;28;20037;-56
2023/10/13 10:53:53;;;;;;;7.65;2.50;;;;;;;24.96;35.92;97021.84;5047683;28;20041;-56
2023/10/13 10:56:36;;;;;;;5.85;2.65;;;;;;;25.10;35.41;97028.91;5040017;28;20131;-55
2023/10/13 10:59:11;;;;;;;6.80;2.70;;;;;;;25.12;34.60;97023.78;5042759;28;20040;-51
2023/10/13 11:01:46;;;;;;;7.93;2.40;;;;;;;25.22;35.20;97014.16;5043323;28;20045;-56
2023/10/13 11:04:14;;;;;;;8.32;2.95;;;;;;;25.31;33.83;97023.88;5038463;28;20128;-65
2023/10/13 11:06:47;;;;;;;9.05;3.05;;;;;;;25.50;34.32;97011.25;5036887;28;20041;-65
2023/10/13 11:11:54;;;;;;;12.25;3.75;;;;;;;25.44;33.73;97004.41;5039835;28;20049;-64
2023/10/13 11:14:28;;;;;;;7.28;2.83;;;;;;;25.49;33.81;96997.75;5048009;28;20078;-64
2023/10/13 11:17:00;;;;;;;5.43;2.45;;;;;;;25.62;33.09;96992.94;5038351;28;20052;-63
2023/10/13 11:19:37;;;;;;;8.75;2.70;;;;;;;25.60;32.44;96998.84;5041217;28;20044;-63
2023/10/13 11:22:36;;;;;;;10.65;2.47;;;;;;;25.58;32.90;96995.66;5039720;28;20036;-63
2023/10/13 11:25:11;;;;;;;7.60;2.33;;;;;;;25.61;32.45;96986.59;5042680;28;20429;-63
2023/10/13 11:30:29;;;;;;;5.97;2.30;;;;;;;25.50;31.78;96989.09;5046484;28;20052;-63
2023/10/13 11:33:03;;;;;;;8.05;2.88;;;;;;;25.65;31.99;96984.69;5043322;28;20286;-63
2023/10/13 11:35:48;;;;;;;5.15;2.25;;;;;;;25.68;31.62;96981.22;5041596;28;20103;-62
2023/10/13 11:38:25;;;;;;;8.10;2.42;;;;;;;25.83;31.85;96978.75;5041197;28;20555;-62
2023/10/13 11:43:52;;;;;;;6.20;2.15;;;;;;;25.89;31.12;96974.53;5040477;28;20044;-62
2023/10/13 11:46:55;;;;;;;7.10;2.10;;;;;;;25.91;30.99;96963.06;5045425;28;20040;-62
2023/10/13 11:51:47;;;;;;;7.45;1.98;;;;;;;25.99;31.35;96956.50;5038252;28;20099;-62
2023/10/13 11:54:19;;;;;;;11.73;2.25;;;;;;;26.03;30.25;96971.25;5047837;28;20110;-63
2023/10/13 11:56:46;;;;;;;4.55;1.90;;;;;;;26.16;30.14;96960.00;5042228;28;20041;-63
2023/10/13 11:59:17;;;;;;;7.25;2.10;;;;;;;26.24;30.69;96961.75;5038645;28;20068;-64
2023/10/13 12:04:51;;;;;;;8.85;2.78;;;;;;;26.55;30.85;96948.88;5030836;28;19925;-63
2023/10/13 12:07:20;;;;;;;6.82;2.33;;;;;;;26.54;30.36;96950.06;5039668;28;20041;-63
2023/10/13 12:12:19;;;;;;;8.30;2.55;;;;;;;26.71;29.77;96934.06;5038515;28;20041;-63
2023/10/13 12:14:55;;;;;;;6.25;2.25;;;;;;;26.73;30.00;96928.97;5047462;28;20760;-64
2023/10/13 12:17:25;;;;;;;9.45;2.28;;;;;;;26.76;29.20;96919.91;5037464;28;20055;-64
2023/10/13 12:19:52;;;;;;;10.00;2.50;;;;;;;26.73;28.90;96917.84;5044099;28;20041;-63
2023/10/13 12:22:27;;;;;;;6.90;2.58;;;;;;;26.79;28.84;96915.56;5042982;28;20120;-63
2023/10/13 12:24:56;;;;;;;6.25;2.00;;;;;;;26.79;28.63;96905.25;5044960;28;20049;-64
2023/10/13 12:27:35;;;;;;;6.35;2.03;;;;;;;26.90;29.11;96908.19;5038234;28;20427;-63
2023/10/13 12:30:08;;;;;;;8.20;2.53;;;;;;;26.94;28.88;96906.28;5035568;28;20415;-64
2023/10/13 12:32:34;;;;;;;7.25;1.95;;;;;;;27.06;29.08;96902.53;5030129;28;20120;-63
2023/10/13 12:51:40;;;;;;;7.07;2.13;;;;;;;27.52;27.28;96881.34;5033406;28;20041;-64
2023/10/13 12:54:35;;;;;;;7.20;2.17;;;;;;;27.50;26.99;96880.91;5037730;28;20099;-63
2023/10/13 12:57:02;;;;;;;4.78;2.20;;;;;;;27.55;27.54;96872.25;5038380;28;20041;-63
2023/10/13 12:59:29;;;;;;;5.63;2.00;;;;;;;27.60;27.59;96880.25;5033512;28;20061;-63
2023/10/13 13:01:55;;;;;;;5.22;2.50;;;;;;;27.51;27.18;96874.19;5027213;28;20080;-63
2023/10/13 13:04:22;;;;;;;10.32;2.30;;;;;;;27.58;27.26;96863.16;5040625;28;20036;-63
2023/10/13 13:06:50;;;;;;;5.10;2.00;;;;;;;27.68;26.93;96863.69;5030629;28;20053;-64
2023/10/13 13:09:25;;;;;;;8.45;2.58;;;;;;;27.77;27.16;96855.84;5036805;28;20045;-63
2023/10/13 13:11:57;;;;;;;8.27;2.10;;;;;;;27.72;26.09;96850.63;5039101;28;20767;-63
2023/10/13 13:14:30;;;;;;;7.32;2.30;;;;;;;27.74;26.38;96853.81;5039996;28;20090;-64
2023/10/13 13:17:05;;;;;;;6.55;2.30;;;;;;;27.67;26.22;96853.75;5034069;28;20116;-63
2023/10/13 13:19:36;;;;;;;6.45;2.08;;;;;;;27.72;26.81;96853.41;5033645;28;20051;-64
2023/10/13 13:22:09;;;;;;;9.05;2.38;;;;;;;27.75;26.23;96849.88;5037988;28;20121;-63
2023/10/13 13:24:43;;;;;;;7.03;2.90;;;;;;;27.79;26.70;96847.94;5039344;28;20488;-64
2023/10/13 13:27:14;;;;;;;7.72;2.20;;;;;;;27.82;26.27;96838.81;5031992;28;20170;-64
2023/10/13 13:29:40;;;;;;;;;;;;;;;27.88;25.95;96845.66;5037796;28;20037;-63
2023/10/13 13:32:17;;;;;;;6.75;2.60;;;;;;;27.97;26.04;96847.34;5030415;28;19970;-64
2023/10/13 13:34:44;;;;;;;4.93;2.40;;;;;;;27.94;26.24;96837.78;5038250;28;20036;-64
2023/10/13 13:37:14;;;;;;;4.55;1.95;;;;;;;28.03;26.09;96832.69;5043373;28;20045;-64
2023/10/13 13:39:45;;;;;;;8.30;2.10;;;;;;;28.34;25.68;96829.03;5034445;28;20049;-64
2023/10/13 13:42:17;;;;;;;7.95;2.25;;;;;;;28.63;25.08;96818.94;5043937;28;20116;-63
2023/10/13 13:44:46;;;;;;;6.97;2.10;;;;;;;29.32;24.17;96813.00;5043154;28;20121;-64
2023/10/13 13:47:13;;;;;;;6.82;2.10;;;;;;;29.51;24.38;96808.34;5034989;28;20349;-63
2023/10/13 13:49:46;;;;;;;5.97;2.17;;;;;;;29.86;24.13;96809.66;5038735;28;20044;-64
2023/10/13 13:52:21;;;;;;;5.00;2.13;;;;;;;29.62;23.59;96805.59;5043522;28;20068;-63
2023/10/13 13:54:48;;;;;;;9.00;3.17;;;;;;;29.78;23.56;96794.91;5034673;28;20060;-63
2023/10/13 13:57:14;;;;;;;6.13;2.17;;;;;;;29.80;23.78;96797.28;5040688;28;20063;-63
2023/10/13 13:59:45;;;;;;;8.55;2.42;;;;;;;29.41;23.78;96804.31;5038427;28;20041;-64
2023/10/13 14:02:20;;;;;;;7.90;2.90;;;;;;;29.24;24.11;96795.47;5038471;28;20041;-64
2023/10/13 14:04:50;;;;;;;7.60;2.65;;;;;;;29.25;24.28;96794.25;5040322;28;20171;-64
2023/10/13 14:07:19;;;;;;;6.03;2.13;;;;;;;29.30;24.34;96788.31;5036404;28;20429;-64
2023/10/13 14:09:51;;;;;;;;;;;;;;;30.06;23.57;96784.16;5038711;28;20140;-64
2023/10/13 14:12:41;;;;;;;;;;;;;;;30.35;23.48;96787.81;5039696;28;19924;-64
2023/10/13 14:15:19;;;;;;;;;;;;;;;29.48;23.94;96782.00;5036859;28;19982;-64
2023/10/13 14:17:48;;;;;;;;;;;;;;;29.19;24.47;96781.91;5040370;28;20378;-64
2023/10/13 14:20:18;;;;;;;;;;;;;;;29.28;24.56;96775.97;5045084;28;19921;-64
2023/10/13 14:22:48;;;;;;;;;;;;;;;29.57;24.15;96771.34;5034325;28;20016;-64
2023/10/13 14:25:15;;;;;;;;;;;;;;;30.29;23.56;96769.84;5037629;28;19944;-63
2023/10/13 14:27:42;;;;;;;;;;;;;;;29.24;24.15;96766.78;5041498;28;19955;-65
2023/10/13 14:30:08;;;;;;;;;;;;;;;29.13;24.59;96769.53;5041275;28;20240;-64
2023/10/13 14:32:40;;;;;;;;;;;;;;;29.51;23.93;96767.28;5032029;28;19952;-64
2023/10/13 14:35:16;;;;;;;;;;;;;;;29.19;24.06;96759.59;5040899;28;19924;-64
2023/10/13 14:37:42;;;;;;;;;;;;;;;28.66;25.12;96770.00;5038668;28;19924;-63
2023/10/13 14:40:15;;;;;;;;;;;;;;;28.81;24.56;96768.94;5039234;28;19924;-63
2023/10/13 14:42:42;;;;;;;;;;;;;;;29.07;24.55;96757.94;5039479;28;19928;-64
2023/10/13 14:45:12;;;;;;;;;;;;;;;29.13;24.30;96761.97;5039932;28;20334;-63
2023/10/13 14:47:40;;;;;;;;;;;;;;;29.33;24.05;96753.28;5036737;28;19927;-64
2023/10/13 14:50:06;;;;;;;;;;;;;;;29.55;24.38;96750.59;5043052;28;20047;-63
2023/10/13 14:52:33;;;;;;;;;;;;;;;29.24;24.69;96750.06;5039560;28;20010;-63
2023/10/13 14:54:59;;;;;;;;;;;;;;;29.11;24.78;96744.03;5043872;28;19944;-63
2023/10/13 14:57:26;;;;;;;;;;;;;;;29.38;24.48;96740.94;5034817;28;19931;-64
2023/10/13 14:59:53;;;;;;;;;;;;;;;28.75;25.06;96739.84;5034340;28;19947;-64
2023/10/13 15:02:21;;;;;;;4.72;2.17;;;;;;;29.10;25.06;96739.66;5036366;28;20595;-64
2023/10/13 15:04:49;;;;;;;6.32;1.98;;;;;;;28.85;25.54;96732.72;5038233;28;20045;-63
2023/10/13 15:07:17;;;;;;;6.30;2.58;;;;;;;28.89;25.10;96736.34;5041607;28;20045;-64
2023/10/13 15:09:44;;;;;;;4.35;1.90;;;;;;;29.52;24.49;96729.84;5038845;28;20120;-64
2023/10/13 15:12:11;;;;;;;4.72;2.17;;;;;;;29.24;24.74;96727.75;5035776;28;20818;-64
2023/10/13 15:14:42;;;;;;;6.22;2.65;;;;;;;29.11;24.86;96732.91;5036570;28;20065;-63
2023/10/13 15:17:10;;;;;;;6.28;2.13;;;;;;;28.92;25.31;96727.22;5035424;28;20047;-63
2023/10/13 15:19:38;;;;;;;4.93;2.17;;;;;;;29.06;25.15;96720.13;5037201;28;20401;-64
2023/10/13 15:22:16;;;;;;;6.53;2.17;;;;;;;28.88;25.13;96723.59;5042700;28;20036;-64
2023/10/13 15:24:45;;;;;;;6.15;2.03;;;;;;;28.88;24.80;96722.78;5039739;28;20112;-64
2023/10/13 15:27:12;;;;;;;4.97;2.10;;;;;;;28.73;25.41;96721.91;5035629;28;20795;-63
2023/10/13 15:29:38;;;;;;;8.90;2.10;;;;;;;29.37;24.68;96715.06;5035783;28;20071;-64
2023/10/13 15:32:41;;;;;;;7.15;2.35;;;;;;;28.50;25.73;96714.63;5037490;28;20060;-64
2023/10/13 15:34:52;;;;;;;4.32;1.90;;;;;;;27.86;26.41;96717.28;5030688;28;20037;-63
2023/10/13 15:37:20;;;;;;;8.88;2.00;;;;;;;26.81;27.22;96711.31;5040048;28;20521;-63
2023/10/13 15:39:46;;;;;;;6.40;2.55;;;;;;;26.45;27.63;96706.03;5035084;28;20048;-64
2023/10/13 15:42:14;;;;;;;8.50;2.58;;;;;;;26.32;27.92;96699.91;5032582;28;20136;-64
2023/10/13 15:44:43;;;;;;;5.70;1.70;;;;;;;26.42;27.97;96700.44;5040996;28;20042;-63
2023/10/13 15:47:12;;;;;;;6.20;2.17;;;;;;;26.19;27.93;96701.25;5032510;28;20047;-64